Time,TemperatureF,DewpointF,PressureIn,WindDirection,WindDirectionDegrees,WindSpeedMPH,WindSpeedGustMPH,Humidity,HourlyPrecipIn,Conditions,Clouds,dailyrainin,SoftwareType,DateUTC
2013-01-08 00:02:00,27.0,27.0,-100.00,South,190,1.0,3.0,99,0.00,,,-99.99,,2013-01-08 06:02:00,
2013-01-08 00:12:00,27.0,27.0,-100.00,South,190,1.0,3.0,99,0.00,,,-99.99,,2013-01-08 06:12:00,
2013-01-08 00:22:00,27.0,27.0,-100.00,South,190,1.0,3.0,99,0.00,,,-99.99,,2013-01-08 06:22:00,
2013-01-08 00:33:00,26.0,26.0,-100.00,SSE,155,6.0,7.0,99,0.00,,,-99.99,,2013-01-08 06:33:00,
2013-01-08 00:43:00,26.0,26.0,-100.00,SSE,160,8.0,9.0,99,0.00,,,-99.99,,2013-01-08 06:43:00,
2013-01-08 00:53:00,26.0,26.0,-100.00,SSE,160,8.0,9.0,99,0.00,,,-99.99,,2013-01-08 06:53:00,
2013-01-08 01:02:00,26.0,26.0,-100.00,SSE,160,8.0,9.0,99,0.00,,,-99.99,,2013-01-08 07:02:00,
2013-01-08 01:12:00,26.0,26.0,-100.00,SE,145,2.0,4.0,99,0.00,,,-99.99,,2013-01-08 07:12:00,
2013-01-08 01:22:00,26.0,26.0,-100.00,SE,145,4.0,4.0,99,0.00,,,-99.99,,2013-01-08 07:22:00,
2013-01-08 01:32:00,26.0,26.0,-100.00,SE,145,4.0,4.0,99,0.00,,,-99.99,,2013-01-08 07:32:00,
2013-01-08 01:42:00,27.0,27.0,-100.00,SE,145,4.0,5.0,99,0.00,,,-99.99,,2013-01-08 07:42:00,
2013-01-08 01:52:00,27.0,27.0,-100.00,SSE,155,6.0,6.0,99,0.00,,,-99.99,,2013-01-08 07:52:00,
2013-01-08 02:02:00,27.0,27.0,-100.00,SSE,155,6.0,6.0,99,0.00,,,-99.99,,2013-01-08 08:02:00,
2013-01-08 02:12:00,27.0,27.0,-100.00,SE,145,3.0,4.0,99,0.00,,,-99.99,,2013-01-08 08:12:00,
2013-01-08 02:22:00,27.0,27.0,-100.00,SE,130,2.0,4.0,99,0.00,,,-99.99,,2013-01-08 08:22:00,
2013-01-08 02:32:00,22.0,22.0,-100.00,NW,315,2.0,2.0,99,0.00,,,-99.99,,2013-01-08 08:32:00,
2013-01-08 02:42:00,20.0,20.0,-100.00,NW,325,4.0,4.0,99,0.00,,,-99.99,,2013-01-08 08:42:00,
2013-01-08 02:52:00,22.0,22.0,-100.00,NW,315,4.0,5.0,99,0.00,,,-99.99,,2013-01-08 08:52:00,
2013-01-08 03:02:00,23.0,23.0,-100.00,NW,325,2.0,4.0,99,0.00,,,-99.99,,2013-01-08 09:02:00,
2013-01-08 03:12:00,21.0,21.0,-100.00,NNW,330,0.0,2.0,99,0.00,,,-99.99,,2013-01-08 09:12:00,
2013-01-08 03:22:00,21.0,21.0,-100.00,NNE,15,0.0,1.0,99,0.00,,,-99.99,,2013-01-08 09:22:00,
2013-01-08 03:32:00,20.0,20.0,-100.00,NNE,15,0.0,0.0,99,0.00,,,-99.99,,2013-01-08 09:32:00,
2013-01-08 03:42:00,20.0,20.0,-100.00,NNE,15,0.0,1.0,99,0.00,,,-99.99,,2013-01-08 09:42:00,
2013-01-08 03:52:00,22.0,22.0,-100.00,North,5,2.0,2.0,99,0.00,,,-99.99,,2013-01-08 09:52:00,
2013-01-08 04:02:00,20.0,20.0,-100.00,East,95,4.0,4.0,99,0.00,,,-99.99,,2013-01-08 10:02:00,
2013-01-08 04:12:00,20.0,20.0,-100.00,ESE,115,0.0,4.0,99,0.00,,,-99.99,,2013-01-08 10:12:00,
2013-01-08 04:22:00,20.0,20.0,-100.00,ESE,115,0.0,4.0,99,0.00,,,-99.99,,2013-01-08 10:22:00,
2013-01-08 04:32:00,18.0,18.0,-100.00,SSE,160,1.0,2.0,99,0.00,,,-99.99,,2013-01-08 10:32:00,
2013-01-08 04:42:00,18.0,18.0,-100.00,SSE,150,2.0,2.0,99,0.00,,,-99.99,,2013-01-08 10:42:00,
2013-01-08 04:52:00,20.0,20.0,-100.00,SSE,150,3.0,3.0,99,0.00,,,-99.99,,2013-01-08 10:52:00,
2013-01-08 05:02:00,20.0,20.0,-100.00,SSE,155,2.0,3.0,99,0.00,,,-99.99,,2013-01-08 11:02:00,
2013-01-08 05:12:00,20.0,20.0,-100.00,South,170,2.0,3.0,99,0.00,,,-99.99,,2013-01-08 11:12:00,
2013-01-08 05:22:00,20.0,20.0,-100.00,South,170,2.0,3.0,99,0.00,,,-99.99,,2013-01-08 11:22:00,
2013-01-08 05:32:00,20.0,20.0,-100.00,South,185,1.0,3.0,99,0.00,,,-99.99,,2013-01-08 11:32:00,
2013-01-08 05:42:00,18.0,18.0,-100.00,South,185,0.0,1.0,99,0.00,,,-99.99,,2013-01-08 11:42:00,
2013-01-08 05:53:00,19.0,19.0,-100.00,SSE,165,1.0,1.0,99,0.00,,,-99.99,,2013-01-08 11:53:00,
2013-01-08 06:02:00,20.0,20.0,-100.00,South,175,0.0,2.0,99,0.00,,,-99.99,,2013-01-08 12:02:00,
2013-01-08 06:12:00,20.0,20.0,-100.00,South,180,1.0,2.0,99,0.00,,,-99.99,,2013-01-08 12:12:00,
2013-01-08 06:22:00,19.0,19.0,-100.00,South,180,1.0,2.0,99,0.00,,,-99.99,,2013-01-08 12:22:00,
2013-01-08 06:32:00,19.0,19.0,-100.00,South,185,1.0,1.0,99,0.00,,,-99.99,,2013-01-08 12:32:00,
2013-01-08 06:42:00,19.0,19.0,-100.00,South,185,1.0,2.0,99,0.00,,,-99.99,,2013-01-08 12:42:00,
2013-01-08 06:53:00,19.0,19.0,-100.00,South,175,0.0,2.0,99,0.00,,,-99.99,,2013-01-08 12:53:00,
2013-01-08 07:03:00,20.0,20.0,-100.00,SSE,165,2.0,2.0,99,0.00,,,-99.99,,2013-01-08 13:03:00,
2013-01-08 07:12:00,21.0,21.0,-100.00,SSE,165,1.0,3.0,99,0.00,,,-99.99,,2013-01-08 13:12:00,
2013-01-08 07:22:00,22.0,22.0,-100.00,SSE,160,2.0,3.0,99,0.00,,,-99.99,,2013-01-08 13:22:00,
2013-01-08 07:32:00,21.0,21.0,-100.00,South,170,2.0,4.0,99,0.00,,,-99.99,,2013-01-08 13:32:00,
2013-01-08 07:42:00,22.0,22.0,-100.00,SSE,150,3.0,4.0,99,0.00,,,-99.99,,2013-01-08 13:42:00,
2013-01-08 07:52:00,22.0,22.0,-100.00,SSE,165,4.0,6.0,99,0.00,,,-99.99,,2013-01-08 13:52:00,
2013-01-08 08:02:00,22.0,22.0,-100.00,SSE,165,4.0,6.0,99,0.00,,,-99.99,,2013-01-08 14:02:00,
2013-01-08 08:12:00,22.0,22.0,-100.00,SSE,155,5.0,6.0,99,0.00,,,-99.99,,2013-01-08 14:12:00,
2013-01-08 08:23:00,23.0,23.0,-100.00,SSE,160,6.0,7.0,99,0.00,,,-99.99,,2013-01-08 14:23:00,
2013-01-08 08:33:00,23.0,23.0,-100.00,SSE,160,6.0,6.0,99,0.00,,,-99.99,,2013-01-08 14:33:00,
2013-01-08 08:43:00,24.0,24.0,-100.00,SSE,155,5.0,6.0,99,0.00,,,-99.99,,2013-01-08 14:43:00,
2013-01-08 08:53:00,24.0,24.0,-100.00,SSE,155,5.0,7.0,99,0.00,,,-99.99,,2013-01-08 14:53:00,
2013-01-08 09:02:00,25.0,25.0,-100.00,SSE,150,6.0,7.0,99,0.00,,,-99.99,,2013-01-08 15:02:00,
2013-01-08 09:12:00,26.0,26.0,-100.00,SSE,160,4.0,7.0,99,0.00,,,-99.99,,2013-01-08 15:12:00,
2013-01-08 09:22:00,26.0,26.0,-100.00,SSE,160,4.0,7.0,99,0.00,,,-99.99,,2013-01-08 15:22:00,
2013-01-08 09:33:00,27.0,27.0,-100.00,South,170,6.0,9.0,99,0.00,,,-99.99,,2013-01-08 15:33:00,
2013-01-08 09:43:00,29.0,29.0,-100.00,South,170,7.0,10.0,99,0.00,,,-99.99,,2013-01-08 15:43:00,
2013-01-08 09:52:00,29.0,29.0,-100.00,South,170,9.0,11.0,99,0.00,,,-99.99,,2013-01-08 15:52:00,
2013-01-08 10:03:00,30.0,30.0,-100.00,SSE,165,9.0,12.0,99,0.00,,,-99.99,,2013-01-08 16:03:00,
2013-01-08 10:12:00,30.0,30.0,-100.00,SSE,165,9.0,12.0,99,0.00,,,-99.99,,2013-01-08 16:12:00,
2013-01-08 10:22:00,31.0,31.0,-100.00,SSE,160,8.0,11.0,99,0.00,,,-99.99,,2013-01-08 16:22:00,
2013-01-08 10:33:00,31.0,31.0,-100.00,SSE,160,11.0,12.0,99,0.00,,,-99.99,,2013-01-08 16:33:00,
2013-01-08 10:42:00,32.0,32.0,-100.00,SSE,155,11.0,14.0,99,0.00,,,-99.99,,2013-01-08 16:42:00,
2013-01-08 10:52:00,33.0,33.0,-100.00,SSE,165,9.0,13.0,99,0.00,,,-99.99,,2013-01-08 16:52:00,
2013-01-08 11:03:00,33.0,33.0,-100.00,SSE,165,10.0,12.0,99,0.00,,,-99.99,,2013-01-08 17:03:00,
2013-01-08 11:13:00,34.0,34.0,-100.00,South,170,10.0,15.0,99,0.00,,,-99.99,,2013-01-08 17:13:00,
2013-01-08 11:23:00,34.0,34.0,-100.00,South,170,10.0,15.0,99,0.00,,,-99.99,,2013-01-08 17:23:00,
2013-01-08 11:33:00,35.0,35.0,-100.00,SSE,165,10.0,15.0,99,0.00,,,-99.99,,2013-01-08 17:33:00,
2013-01-08 11:43:00,35.0,35.0,-100.00,SSE,160,9.0,14.0,99,0.00,,,-99.99,,2013-01-08 17:43:00,
2013-01-08 11:53:00,35.0,35.0,-100.00,SSE,160,11.0,14.0,99,0.00,,,-99.99,,2013-01-08 17:53:00,
2013-01-08 12:03:00,36.0,36.0,-100.00,SSE,160,11.0,14.0,99,0.00,,,-99.99,,2013-01-08 18:03:00,
2013-01-08 12:12:00,38.0,38.0,-100.00,South,170,9.0,12.0,99,0.00,,,-99.99,,2013-01-08 18:12:00,
2013-01-08 12:23:00,38.0,38.0,-100.00,SSE,165,9.0,13.0,99,0.00,,,-99.99,,2013-01-08 18:23:00,
2013-01-08 12:33:00,37.0,37.0,-100.00,South,170,7.0,14.0,99,0.00,,,-99.99,,2013-01-08 18:33:00,
2013-01-08 12:43:00,37.0,37.0,-100.00,SSE,165,11.0,14.0,99,0.00,,,-99.99,,2013-01-08 18:43:00,
2013-01-08 12:53:00,38.0,38.0,-100.00,SSE,165,11.0,15.0,99,0.00,,,-99.99,,2013-01-08 18:53:00,
2013-01-08 13:03:00,38.0,38.0,-100.00,South,175,11.0,16.0,99,0.00,,,-99.99,,2013-01-08 19:03:00,
2013-01-08 13:12:00,39.0,38.0,-100.00,SSE,165,10.0,16.0,99,0.00,,,-99.99,,2013-01-08 19:12:00,
2013-01-08 13:22:00,39.0,38.0,-100.00,SSE,165,10.0,16.0,99,0.00,,,-99.99,,2013-01-08 19:22:00,
2013-01-08 13:32:00,39.0,39.0,-100.00,SSE,165,8.0,12.0,97,0.00,,,-99.99,,2013-01-08 19:32:00,
2013-01-08 13:42:00,39.0,39.0,-100.00,South,180,8.0,14.0,98,0.00,,,-99.99,,2013-01-08 19:42:00,
2013-01-08 13:53:00,39.0,39.0,-100.00,South,170,8.0,13.0,98,0.00,,,-99.99,,2013-01-08 19:53:00,
2013-01-08 14:03:00,39.0,-99.9,-100.00,SSE,160,12.0,16.0,-999,0.00,,,-99.99,,2013-01-08 20:03:00,
2013-01-08 14:12:00,39.0,39.0,-100.00,SSE,160,11.0,14.0,99,0.00,,,-99.99,,2013-01-08 20:12:00,
2013-01-08 14:22:00,39.0,38.0,-100.00,SSE,160,11.0,14.0,99,0.00,,,-99.99,,2013-01-08 20:22:00,
2013-01-08 14:33:00,39.0,38.0,-100.00,SSE,160,12.0,15.0,99,0.00,,,-99.99,,2013-01-08 20:33:00,
2013-01-08 14:43:00,39.0,39.0,-100.00,SSE,165,12.0,16.0,99,0.00,,,-99.99,,2013-01-08 20:43:00,
2013-01-08 14:53:00,39.0,39.0,-100.00,SSE,165,12.0,16.0,99,0.00,,,-99.99,,2013-01-08 20:53:00,
2013-01-08 15:03:00,40.0,39.0,-100.00,SSE,165,16.0,22.0,96,0.00,,,-99.99,,2013-01-08 21:03:00,
2013-01-08 15:12:00,40.0,40.0,-100.00,SSE,160,16.0,19.0,98,0.00,,,-99.99,,2013-01-08 21:12:00,
2013-01-08 15:22:00,40.0,39.0,-100.00,SSE,160,16.0,20.0,98,0.00,,,-99.99,,2013-01-08 21:22:00,
2013-01-08 15:33:00,40.0,40.0,-100.00,SSE,160,16.0,21.0,99,0.00,,,-99.99,,2013-01-08 21:33:00,
2013-01-08 15:43:00,40.0,40.0,-100.00,SSE,165,16.0,20.0,97,0.00,,,-99.99,,2013-01-08 21:43:00,
2013-01-08 15:53:00,40.0,39.0,-100.00,SSE,165,14.0,19.0,96,0.00,,,-99.99,,2013-01-08 21:53:00,
2013-01-08 16:03:00,40.0,39.0,-100.00,SSE,165,14.0,19.0,96,0.00,,,-99.99,,2013-01-08 22:03:00,
2013-01-08 16:12:00,40.0,39.0,-100.00,SSE,165,14.0,17.0,97,0.00,,,-99.99,,2013-01-08 22:12:00,
2013-01-08 16:22:00,40.0,39.0,-100.00,South,170,11.0,17.0,95,0.00,,,-99.99,,2013-01-08 22:22:00,
2013-01-08 16:33:00,40.0,39.0,-100.00,SSE,165,14.0,17.0,97,0.00,,,-99.99,,2013-01-08 22:33:00,
2013-01-08 16:43:00,39.0,39.0,-100.00,SSE,165,15.0,20.0,98,0.00,,,-99.99,,2013-01-08 22:43:00,
2013-01-08 16:52:00,39.0,39.0,-100.00,SSE,165,9.0,16.0,99,0.00,,,-99.99,,2013-01-08 22:52:00,
2013-01-08 17:02:00,39.0,39.0,-100.00,South,175,9.0,16.0,99,0.00,,,-99.99,,2013-01-08 23:02:00,
2013-01-08 17:12:00,38.0,38.0,-100.00,South,170,10.0,15.0,99,0.00,,,-99.99,,2013-01-08 23:12:00,
2013-01-08 17:23:00,38.0,-99.9,-100.00,South,180,9.0,13.0,-999,0.00,,,-99.99,,2013-01-08 23:23:00,
2013-01-08 17:32:00,37.0,37.0,-100.00,South,170,11.0,13.0,99,0.00,,,-99.99,,2013-01-08 23:32:00,
2013-01-08 17:43:00,37.0,37.0,-100.00,South,175,9.0,14.0,99,0.00,,,-99.99,,2013-01-08 23:43:00,
2013-01-08 17:52:00,38.0,38.0,-100.00,South,180,11.0,15.0,99,0.00,,,-99.99,,2013-01-08 23:52:00,
2013-01-08 18:02:00,38.0,38.0,-100.00,South,180,11.0,15.0,99,0.00,,,-99.99,,2013-01-09 00:02:00,
2013-01-08 18:12:00,38.0,38.0,-100.00,South,180,11.0,15.0,99,0.00,,,-99.99,,2013-01-09 00:12:00,
2013-01-08 18:22:00,37.0,37.0,-100.00,South,170,9.0,13.0,99,0.00,,,-99.99,,2013-01-09 00:22:00,
2013-01-08 18:33:00,37.0,37.0,-100.00,South,175,8.0,12.0,99,0.00,,,-99.99,,2013-01-09 00:33:00,
2013-01-08 18:42:00,37.0,37.0,-100.00,South,170,9.0,13.0,99,0.00,,,-99.99,,2013-01-09 00:42:00,
2013-01-08 18:52:00,37.0,37.0,-100.00,South,175,8.0,13.0,99,0.00,,,-99.99,,2013-01-09 00:52:00,
2013-01-08 19:02:00,38.0,38.0,-100.00,South,170,9.0,13.0,99,0.00,,,-99.99,,2013-01-09 01:02:00,
2013-01-08 19:12:00,38.0,-99.9,-100.00,South,180,11.0,17.0,-999,0.00,,,-99.99,,2013-01-09 01:12:00,
2013-01-08 19:22:00,38.0,-99.9,-100.00,South,180,11.0,17.0,-999,0.00,,,-99.99,,2013-01-09 01:22:00,
2013-01-08 19:32:00,38.0,38.0,-100.00,South,180,10.0,16.0,99,0.00,,,-99.99,,2013-01-09 01:32:00,
2013-01-08 19:42:00,38.0,38.0,-100.00,South,180,10.0,17.0,99,0.00,,,-99.99,,2013-01-09 01:42:00,
2013-01-08 19:52:00,38.0,38.0,-100.00,South,180,11.0,15.0,99,0.00,,,-99.99,,2013-01-09 01:52:00,
2013-01-08 20:02:00,38.0,38.0,-100.00,South,185,7.0,18.0,99,0.00,,,-99.99,,2013-01-09 02:02:00,
2013-01-08 20:12:00,38.0,38.0,-100.00,South,185,7.0,18.0,99,0.00,,,-99.99,,2013-01-09 02:12:00,
2013-01-08 20:22:00,38.0,38.0,-100.00,South,180,11.0,15.0,99,0.00,,,-99.99,,2013-01-09 02:22:00,
2013-01-08 20:33:00,38.0,38.0,-100.00,SSW,195,6.0,14.0,99,0.00,,,-99.99,,2013-01-09 02:33:00,
2013-01-08 20:42:00,38.0,38.0,-100.00,SSW,205,8.0,12.0,99,0.00,,,-99.99,,2013-01-09 02:42:00,
2013-01-08 20:53:00,39.0,38.0,-100.00,SSW,205,9.0,13.0,99,0.00,,,-99.99,,2013-01-09 02:53:00,
2013-01-08 21:03:00,39.0,38.0,-100.00,SSW,205,9.0,13.0,99,0.00,,,-99.99,,2013-01-09 03:03:00,
2013-01-08 21:12:00,38.0,38.0,-100.00,SSW,205,7.0,13.0,99,0.00,,,-99.99,,2013-01-09 03:12:00,
2013-01-08 21:22:00,38.0,38.0,-100.00,SSW,205,7.0,13.0,99,0.00,,,-99.99,,2013-01-09 03:22:00,
2013-01-08 21:33:00,38.0,38.0,-100.00,SSW,210,3.0,11.0,99,0.00,,,-99.99,,2013-01-09 03:33:00,
2013-01-08 21:42:00,38.0,38.0,-100.00,South,190,4.0,11.0,99,0.00,,,-99.99,,2013-01-09 03:42:00,
2013-01-08 21:52:00,38.0,38.0,-100.00,WSW,245,4.0,10.0,99,0.00,,,-99.99,,2013-01-09 03:52:00,
2013-01-08 22:02:00,38.0,38.0,-100.00,West,270,3.0,7.0,99,0.00,,,-99.99,,2013-01-09 04:02:00,
2013-01-08 22:12:00,39.0,-99.9,-100.00,WSW,255,7.0,9.0,-999,0.00,,,-99.99,,2013-01-09 04:12:00,
2013-01-08 22:22:00,38.0,38.0,-100.00,SW,235,7.0,10.0,99,0.00,,,-99.99,,2013-01-09 04:22:00,
2013-01-08 22:32:00,38.0,38.0,-100.00,WSW,250,9.0,12.0,99,0.00,,,-99.99,,2013-01-09 04:32:00,
2013-01-08 22:42:00,38.0,38.0,-100.00,WSW,255,12.0,17.0,99,0.00,,,-99.99,,2013-01-09 04:42:00,
2013-01-08 22:52:00,38.0,38.0,-100.00,West,270,14.0,19.0,99,0.00,,,-99.99,,2013-01-09 04:52:00,
2013-01-08 23:03:00,38.0,38.0,-100.00,West,270,14.0,19.0,99,0.00,,,-99.99,,2013-01-09 05:03:00,
2013-01-08 23:12:00,38.0,38.0,-100.00,West,265,12.0,19.0,99,0.00,,,-99.99,,2013-01-09 05:12:00,
2013-01-08 23:21:00,37.0,37.0,-100.00,West,260,13.0,20.0,99,0.00,,,-99.99,,2013-01-09 05:21:00,
2013-01-08 23:22:00,38.0,38.0,-100.00,West,265,12.0,19.0,99,0.00,,,-99.99,,2013-01-09 05:22:00,
2013-01-08 23:33:00,37.0,37.0,-100.00,West,260,13.0,20.0,99,0.00,,,-99.99,,2013-01-09 05:33:00,
2013-01-08 23:42:00,37.0,37.0,-100.00,West,260,13.0,20.0,99,0.00,,,-99.99,,2013-01-09 05:42:00,
2013-01-08 23:52:00,37.0,37.0,-100.00,West,260,13.0,20.0,99,0.00,,,-99.99,,2013-01-09 05:52:00,